sensor_id;sensor_type;location;lat;lon;timestamp;pressure;altitude;pressure_sealevel;temperature;humidity
68197;BME280;55019;49.382;11.358;2023-03-14T00:01:57;94901.69;;;7.65;100.00
68197;BME280;55019;49.382;11.358;2023-03-14T00:04:22;94894.28;;;7.76;100.00
68197;BME280;55019;49.382;11.358;2023-03-14T00:06:48;94902.34;;;7.73;100.00
68197;BME280;55019;49.382;11.358;2023-03-14T00:09:16;94914.22;;;7.74;100.00
68197;BME280;55019;49.382;11.358;2023-03-14T00:11:42;94922.41;;;7.63;100.00
68197;BME280;55019;49.382;11.358;2023-03-14T00:14:07;94920.06;;;7.62;100.00
68197;BME280;55019;49.382;11.358;2023-03-14T00:16:33;94915.88;;;7.61;100.00
68197;BME280;55019;49.382;11.358;2023-03-14T00:18:59;94936.44;;;7.61;100.00
68197;BME280;55019;49.382;11.358;2023-03-14T00:21:25;94933.88;;;7.61;100.00
68197;BME280;55019;49.382;11.358;2023-03-14T00:23:54;94939.03;;;7.61;100.00
68197;BME280;55019;49.382;11.358;2023-03-14T00:26:20;94957.13;;;7.53;100.00
68197;BME280;55019;49.382;11.358;2023-03-14T00:28:50;94958.47;;;7.49;100.00
68197;BME280;55019;49.382;11.358;2023-03-14T00:31:16;94961.06;;;7.49;100.00
68197;BME280;55019;49.382;11.358;2023-03-14T00:33:43;94973.53;;;7.52;100.00
68197;BME280;55019;49.382;11.358;2023-03-14T00:36:14;94981.25;;;7.52;100.00
68197;BME280;55019;49.382;11.358;2023-03-14T00:38:41;94985.56;;;7.51;100.00
68197;BME280;55019;49.382;11.358;2023-03-14T00:41:10;94994.25;;;7.50;100.00
68197;BME280;55019;49.382;11.358;2023-03-14T00:43:37;95004.19;;;7.53;100.00
68197;BME280;55019;49.382;11.358;2023-03-14T00:46:04;95004.38;;;7.52;100.00
68197;BME280;55019;49.382;11.358;2023-03-14T00:48:30;95008.41;;;7.61;100.00
68197;BME280;55019;49.382;11.358;2023-03-14T00:50:56;95005.84;;;7.61;100.00
68197;BME280;55019;49.382;11.358;2023-03-14T00:53:22;95011.22;;;7.66;100.00
68197;BME280;55019;49.382;11.358;2023-03-14T00:55:48;94991.22;;;7.61;100.00
68197;BME280;55019;49.382;11.358;2023-03-14T00:58:15;94990.84;;;7.64;100.00
68197;BME280;55019;49.382;11.358;2023-03-14T01:00:41;94989.69;;;7.67;100.00
68197;BME280;55019;49.382;11.358;2023-03-14T01:03:09;94992.38;;;7.59;100.00
68197;BME280;55019;49.382;11.358;2023-03-14T01:05:36;94996.25;;;7.69;100.00
68197;BME280;55019;49.382;11.358;2023-03-14T01:08:02;95031.44;;;7.69;100.00
68197;BME280;55019;49.382;11.358;2023-03-14T01:10:27;95028.97;;;7.61;100.00
68197;BME280;55019;49.382;11.358;2023-03-14T01:12:53;95012.75;;;7.60;100.00
68197;BME280;55019;49.382;11.358;2023-03-14T01:15:19;94997.53;;;7.59;100.00
68197;BME280;55019;49.382;11.358;2023-03-14T01:17:46;94987.59;;;7.56;100.00
68197;BME280;55019;49.382;11.358;2023-03-14T01:20:14;94977.75;;;7.59;100.00
68197;BME280;55019;49.382;11.358;2023-03-14T01:22:41;94954.84;;;7.64;100.00
68197;BME280;55019;49.382;11.358;2023-03-14T01:25:09;94926.53;;;7.58;100.00
68197;BME280;55019;49.382;11.358;2023-03-14T01:27:35;94913.31;;;7.61;100.00
68197;BME280;55019;49.382;11.358;2023-03-14T01:30:01;94890.59;;;7.64;100.00
68197;BME280;55019;49.382;11.358;2023-03-14T01:32:29;94871.66;;;7.65;100.00
68197;BME280;55019;49.382;11.358;2023-03-14T01:34:54;94856.03;;;7.67;100.00
68197;BME280;55019;49.382;11.358;2023-03-14T01:37:20;94880.88;;;7.60;100.00
68197;BME280;55019;49.382;11.358;2023-03-14T01:39:47;94879.31;;;7.59;100.00
68197;BME280;55019;49.382;11.358;2023-03-14T01:42:13;94865.22;;;7.55;100.00
68197;BME280;55019;49.382;11.358;2023-03-14T01:44:52;94838.19;;;7.59;100.00
68197;BME280;55019;49.382;11.358;2023-03-14T01:47:20;94861.31;;;7.59;100.00
68197;BME280;55019;49.382;11.358;2023-03-14T01:50:09;94855.56;;;7.57;100.00
68197;BME280;55019;49.382;11.358;2023-03-14T01:52:44;94862.28;;;7.58;100.00
68197;BME280;55019;49.382;11.358;2023-03-14T01:55:29;94844.75;;;7.68;100.00
68197;BME280;55019;49.382;11.358;2023-03-14T01:58:02;94865.56;;;7.73;100.00
68197;BME280;55019;49.382;11.358;2023-03-14T02:00:29;94885.97;;;7.81;100.00
68197;BME280;55019;49.382;11.358;2023-03-14T02:08:33;94945.81;;;7.68;100.00
68197;BME280;55019;49.382;11.358;2023-03-14T02:11:04;94936.19;;;7.77;100.00
68197;BME280;55019;49.382;11.358;2023-03-14T02:13:44;94942.88;;;7.71;100.00
68197;BME280;55019;49.382;11.358;2023-03-14T02:16:28;94943.97;;;7.62;100.00
68197;BME280;55019;49.382;11.358;2023-03-14T02:19:35;94932.66;;;7.57;100.00
68197;BME280;55019;49.382;11.358;2023-03-14T02:22:20;94926.31;;;7.53;100.00
68197;BME280;55019;49.382;11.358;2023-03-14T02:25:14;94926.31;;;7.53;100.00
68197;BME280;55019;49.382;11.358;2023-03-14T02:27:43;94923.13;;;7.51;100.00
68197;BME280;55019;49.382;11.358;2023-03-14T02:30:21;94903.22;;;7.38;100.00
68197;BME280;55019;49.382;11.358;2023-03-14T02:33:01;94906.47;;;7.47;100.00
68197;BME280;55019;49.382;11.358;2023-03-14T02:35:33;94902.13;;;7.47;100.00
68197;BME280;55019;49.382;11.358;2023-03-14T02:38:14;94899.31;;;7.42;100.00
68197;BME280;55019;49.382;11.358;2023-03-14T02:40:43;94902.84;;;7.41;100.00
68197;BME280;55019;49.382;11.358;2023-03-14T02:43:10;94904.38;;;7.36;100.00
68197;BME280;55019;49.382;11.358;2023-03-14T02:45:43;94883.81;;;7.36;100.00
68197;BME280;55019;49.382;11.358;2023-03-14T02:50:51;94890.25;;;7.46;100.00
68197;BME280;55019;49.382;11.358;2023-03-14T02:53:21;94878.31;;;7.39;100.00
68197;BME280;55019;49.382;11.358;2023-03-14T02:55:49;94876.31;;;7.34;100.00
68197;BME280;55019;49.382;11.358;2023-03-14T02:58:19;94863.03;;;7.31;100.00
68197;BME280;55019;49.382;11.358;2023-03-14T03:00:51;94866.53;;;7.44;100.00
68197;BME280;55019;49.382;11.358;2023-03-14T03:03:17;94862.34;;;7.43;100.00
68197;BME280;55019;49.382;11.358;2023-03-14T03:05:47;94852.75;;;7.31;100.00
68197;BME280;55019;49.382;11.358;2023-03-14T03:08:12;94868.09;;;7.45;100.00
68197;BME280;55019;49.382;11.358;2023-03-14T03:10:39;94874.16;;;7.59;100.00
68197;BME280;55019;49.382;11.358;2023-03-14T03:13:06;94882.00;;;7.51;100.00
68197;BME280;55019;49.382;11.358;2023-03-14T03:15:31;94878.75;;;7.42;100.00
68197;BME280;55019;49.382;11.358;2023-03-14T03:17:57;94883.81;;;7.36;100.00
68197;BME280;55019;49.382;11.358;2023-03-14T03:20:23;94881.09;;;7.37;100.00
68197;BME280;55019;49.382;11.358;2023-03-14T03:22:49;94900.81;;;7.37;100.00
68197;BME280;55019;49.382;11.358;2023-03-14T03:25:15;94885.41;;;7.37;100.00
68197;BME280;55019;49.382;11.358;2023-03-14T03:27:41;94884.44;;;7.38;100.00
68197;BME280;55019;49.382;11.358;2023-03-14T03:30:08;94881.63;;;7.33;100.00
68197;BME280;55019;49.382;11.358;2023-03-14T03:32:35;94869.75;;;7.32;100.00
68197;BME280;55019;49.382;11.358;2023-03-14T03:35:05;94859.84;;;7.29;100.00
68197;BME280;55019;49.382;11.358;2023-03-14T03:37:34;94858.25;;;7.28;100.00
68197;BME280;55019;49.382;11.358;2023-03-14T03:40:01;94860.81;;;7.28;100.00
68197;BME280;55019;49.382;11.358;2023-03-14T03:42:27;94854.31;;;7.25;100.00
68197;BME280;55019;49.382;11.358;2023-03-14T03:44:53;94845.00;;;7.24;100.00
68197;BME280;55019;49.382;11.358;2023-03-14T03:47:19;94840.34;;;7.13;100.00
68197;BME280;55019;49.382;11.358;2023-03-14T03:49:47;94847.25;;;7.13;100.00
68197;BME280;55019;49.382;11.358;2023-03-14T03:52:13;94854.66;;;7.22;100.00
68197;BME280;55019;49.382;11.358;2023-03-14T03:54:38;94838.66;;;7.20;100.00
68197;BME280;55019;49.382;11.358;2023-03-14T03:57:05;94843.28;;;7.10;100.00
68197;BME280;55019;49.382;11.358;2023-03-14T03:59:30;94847.88;;;7.15;100.00
68197;BME280;55019;49.382;11.358;2023-03-14T04:01:56;94841.31;;;7.12;100.00
68197;BME280;55019;49.382;11.358;2023-03-14T04:04:22;94827.69;;;7.12;100.00
68197;BME280;55019;49.382;11.358;2023-03-14T04:06:48;94814.78;;;7.06;100.00
68197;BME280;55019;49.382;11.358;2023-03-14T04:09:14;94824.94;;;7.13;100.00
68197;BME280;55019;49.382;11.358;2023-03-14T04:11:46;94809.00;;;6.97;100.00
68197;BME280;55019;49.382;11.358;2023-03-14T04:14:19;94798.13;;;6.95;100.00
68197;BME280;55019;49.382;11.358;2023-03-14T04:16:45;94812.81;;;7.07;100.00
68197;BME280;55019;49.382;11.358;2023-03-14T04:19:14;94799.63;;;7.10;100.00
68197;BME280;55019;49.382;11.358;2023-03-14T04:21:43;94806.09;;;7.07;100.00
68197;BME280;55019;49.382;11.358;2023-03-14T04:24:13;94796.28;;;7.10;100.00
68197;BME280;55019;49.382;11.358;2023-03-14T04:26:40;94800.66;;;7.16;100.00
68197;BME280;55019;49.382;11.358;2023-03-14T04:29:08;94789.56;;;7.09;100.00
68197;BME280;55019;49.382;11.358;2023-03-14T04:31:34;94783.19;;;7.05;100.00
68197;BME280;55019;49.382;11.358;2023-03-14T04:34:00;94791.88;;;7.04;100.00
68197;BME280;55019;49.382;11.358;2023-03-14T04:36:33;94783.19;;;7.05;100.00
68197;BME280;55019;49.382;11.358;2023-03-14T04:39:03;94779.81;;;7.05;100.00
68197;BME280;55019;49.382;11.358;2023-03-14T04:41:30;94774.03;;;6.96;100.00
68197;BME280;55019;49.382;11.358;2023-03-14T04:43:57;94796.16;;;6.97;100.00
68197;BME280;55019;49.382;11.358;2023-03-14T04:46:23;94788.09;;;7.00;100.00
68197;BME280;55019;49.382;11.358;2023-03-14T04:48:49;94778.19;;;6.97;100.00
68197;BME280;55019;49.382;11.358;2023-03-14T04:51:17;94781.13;;;6.94;100.00
68197;BME280;55019;49.382;11.358;2023-03-14T04:53:43;94784.66;;;6.93;100.00
68197;BME280;55019;49.382;11.358;2023-03-14T04:56:10;94805.22;;;6.93;100.00
68197;BME280;55019;49.382;11.358;2023-03-14T04:58:40;94795.03;;;6.85;100.00
68197;BME280;55019;49.382;11.358;2023-03-14T05:01:06;94800.06;;;6.93;100.00
68197;BME280;55019;49.382;11.358;2023-03-14T05:03:51;94801.28;;;6.97;100.00
68197;BME280;55019;49.382;11.358;2023-03-14T05:06:37;94803.63;;;6.92;100.00
68197;BME280;55019;49.382;11.358;2023-03-14T05:09:31;94807.94;;;6.92;100.00
68197;BME280;55019;49.382;11.358;2023-03-14T05:12:16;94800.69;;;6.95;100.00
68197;BME280;55019;49.382;11.358;2023-03-14T05:15:00;94794.56;;;6.96;100.00
68197;BME280;55019;49.382;11.358;2023-03-14T05:17:53;94776.38;;;6.91;100.00
68197;BME280;55019;49.382;11.358;2023-03-14T05:20:40;94781.28;;;6.93;100.00
68197;BME280;55019;49.382;11.358;2023-03-14T05:23:44;94775.75;;;6.89;100.00
68197;BME280;55019;49.382;11.358;2023-03-14T05:26:36;94763.38;;;6.78;100.00
68197;BME280;55019;49.382;11.358;2023-03-14T05:29:21;94770.72;;;6.81;100.00
68197;BME280;55019;49.382;11.358;2023-03-14T05:31:59;94769.94;;;6.81;100.00
68197;BME280;55019;49.382;11.358;2023-03-14T05:34:43;94771.94;;;6.85;100.00
68197;BME280;55019;49.382;11.358;2023-03-14T05:37:22;94767.53;;;6.79;100.00
68197;BME280;55019;49.382;11.358;2023-03-14T05:40:00;94765.59;;;6.81;100.00
68197;BME280;55019;49.382;11.358;2023-03-14T05:42:41;94757.09;;;6.81;100.00
68197;BME280;55019;49.382;11.358;2023-03-14T05:45:26;94763.22;;;6.80;100.00
68197;BME280;55019;49.382;11.358;2023-03-14T05:48:11;94748.97;;;6.77;100.00
68197;BME280;55019;49.382;11.358;2023-03-14T05:50:55;94754.53;;;6.81;100.00
68197;BME280;55019;49.382;11.358;2023-03-14T05:53:36;94741.69;;;6.81;100.00
68197;BME280;55019;49.382;11.358;2023-03-14T05:56:14;94748.59;;;6.80;100.00
68197;BME280;55019;49.382;11.358;2023-03-14T05:59:04;94756.28;;;6.80;100.00
68197;BME280;55019;49.382;11.358;2023-03-14T06:01:40;94747.25;;;6.84;100.00
68197;BME280;55019;49.382;11.358;2023-03-14T06:04:14;94747.84;;;6.86;100.00
68197;BME280;55019;49.382;11.358;2023-03-14T06:06:40;94746.25;;;6.85;100.00
68197;BME280;55019;49.382;11.358;2023-03-14T06:09:09;94741.50;;;6.82;100.00
68197;BME280;55019;49.382;11.358;2023-03-14T06:11:38;94755.00;;;6.91;100.00
68197;BME280;55019;49.382;11.358;2023-03-14T06:14:05;94754.56;;;6.87;100.00
68197;BME280;55019;49.382;11.358;2023-03-14T06:16:30;94744.69;;;6.84;100.00
68197;BME280;55019;49.382;11.358;2023-03-14T06:18:58;94752.66;;;6.89;100.00
68197;BME280;55019;49.382;11.358;2023-03-14T06:21:24;94757.41;;;6.92;100.00
68197;BME280;55019;49.382;11.358;2023-03-14T06:23:50;94750.41;;;6.86;100.00
68197;BME280;55019;49.382;11.358;2023-03-14T06:26:19;94747.84;;;6.86;100.00
68197;BME280;55019;49.382;11.358;2023-03-14T06:28:44;94750.06;;;6.89;100.00
68197;BME280;55019;49.382;11.358;2023-03-14T06:31:10;94763.75;;;6.96;100.00
68197;BME280;55019;49.382;11.358;2023-03-14T06:33:45;94755.25;;;6.96;100.00
68197;BME280;55019;49.382;11.358;2023-03-14T06:36:11;94759.47;;;7.03;100.00
68197;BME280;55019;49.382;11.358;2023-03-14T06:38:39;94756.31;;;7.01;100.00
68197;BME280;55019;49.382;11.358;2023-03-14T06:41:07;94756.66;;;6.98;100.00
68197;BME280;55019;49.382;11.358;2023-03-14T06:43:37;94759.09;;;7.06;100.00
68197;BME280;55019;49.382;11.358;2023-03-14T06:46:05;94760.25;;;7.04;100.00
68197;BME280;55019;49.382;11.358;2023-03-14T06:48:32;94757.56;;;7.11;100.00
68197;BME280;55019;49.382;11.358;2023-03-14T06:50:58;94741.44;;;7.17;100.00
68197;BME280;55019;49.382;11.358;2023-03-14T06:53:24;94747.09;;;7.13;100.00
68197;BME280;55019;49.382;11.358;2023-03-14T06:55:50;94750.28;;;7.15;100.00
68197;BME280;55019;49.382;11.358;2023-03-14T06:58:17;94752.84;;;7.15;100.00
68197;BME280;55019;49.382;11.358;2023-03-14T07:00:44;94765.94;;;7.20;100.00
68197;BME280;55019;49.382;11.358;2023-03-14T07:03:14;94755.75;;;7.33;100.00
68197;BME280;55019;49.382;11.358;2023-03-14T07:05:43;94758.75;;;7.36;100.00
68197;BME280;55019;49.382;11.358;2023-03-14T07:08:08;94749.44;;;7.35;100.00
68197;BME280;55019;49.382;11.358;2023-03-14T07:10:34;94758.44;;;7.46;100.00
68197;BME280;55019;49.382;11.358;2023-03-14T07:13:00;94760.56;;;7.42;100.00
68197;BME280;55019;49.382;11.358;2023-03-14T07:15:30;94762.38;;;7.48;100.00
68197;BME280;55019;49.382;11.358;2023-03-14T07:18:00;94756.63;;;7.46;100.00
68197;BME280;55019;49.382;11.358;2023-03-14T07:20:27;94765.22;;;7.60;100.00
68197;BME280;55019;49.382;11.358;2023-03-14T07:22:55;94761.44;;;7.56;100.00
68197;BME280;55019;49.382;11.358;2023-03-14T07:25:31;94766.28;;;7.72;100.00
68197;BME280;55019;49.382;11.358;2023-03-14T07:27:57;94775.22;;;7.76;100.00
68197;BME280;55019;49.382;11.358;2023-03-14T07:30:23;94773.69;;;7.88;100.00
68197;BME280;55019;49.382;11.358;2023-03-14T07:32:49;94779.78;;;7.80;100.00
68197;BME280;55019;49.382;11.358;2023-03-14T07:35:15;94777.78;;;7.76;100.00
68197;BME280;55019;49.382;11.358;2023-03-14T07:37:41;94786.53;;;7.81;100.00
68197;BME280;55019;49.382;11.358;2023-03-14T07:40:09;94779.78;;;7.80;100.00
68197;BME280;55019;49.382;11.358;2023-03-14T07:42:37;94773.84;;;7.80;100.00
68197;BME280;55019;49.382;11.358;2023-03-14T07:45:21;94782.16;;;7.82;100.00
68197;BME280;55019;49.382;11.358;2023-03-14T07:47:47;94782.53;;;7.79;100.00
68197;BME280;55019;49.382;11.358;2023-03-14T07:50:12;94783.72;;;7.76;100.00
68197;BME280;55019;49.382;11.358;2023-03-14T07:52:38;94798.94;;;7.78;100.00
68197;BME280;55019;49.382;11.358;2023-03-14T07:55:04;94793.59;;;7.73;100.00
68197;BME280;55019;49.382;11.358;2023-03-14T07:57:30;94784.66;;;7.69;100.00
68197;BME280;55019;49.382;11.358;2023-03-14T07:59:55;94796.75;;;7.75;100.00
68197;BME280;55019;49.382;11.358;2023-03-14T08:02:21;94791.00;;;7.73;100.00
68197;BME280;55019;49.382;11.358;2023-03-14T08:04:49;94803.50;;;7.76;100.00
68197;BME280;55019;49.382;11.358;2023-03-14T08:07:16;94796.59;;;7.83;100.00
68197;BME280;55019;49.382;11.358;2023-03-14T08:09:42;94793.63;;;7.79;99.77
68197;BME280;55019;49.382;11.358;2023-03-14T08:12:08;94788.34;;;7.87;99.04
68197;BME280;55019;49.382;11.358;2023-03-14T08:14:33;94791.13;;;7.92;97.00
68197;BME280;55019;49.382;11.358;2023-03-14T08:17:01;94778.28;;;7.92;96.85
68197;BME280;55019;49.382;11.358;2023-03-14T08:19:27;94790.22;;;8.06;96.32
68197;BME280;55019;49.382;11.358;2023-03-14T08:21:53;94779.16;;;8.06;96.42
68197;BME280;55019;49.382;11.358;2023-03-14T08:24:18;94786.00;;;8.26;95.57
68197;BME280;55019;49.382;11.358;2023-03-14T08:26:44;94767.38;;;8.24;94.52
68197;BME280;55019;49.382;11.358;2023-03-14T08:29:10;94764.13;;;8.50;94.70
68197;BME280;55019;49.382;11.358;2023-03-14T08:31:35;94760.97;;;8.60;93.44
68197;BME280;55019;49.382;11.358;2023-03-14T08:34:01;94761.56;;;8.62;92.46
68197;BME280;55019;49.382;11.358;2023-03-14T08:36:27;94756.44;;;8.69;92.35
68197;BME280;55019;49.382;11.358;2023-03-14T08:38:53;94745.75;;;8.91;91.38
68197;BME280;55019;49.382;11.358;2023-03-14T08:41:19;94749.75;;;9.00;90.80
68197;BME280;55019;49.382;11.358;2023-03-14T08:43:45;94747.38;;;9.18;89.65
68197;BME280;55019;49.382;11.358;2023-03-14T08:46:11;94754.31;;;9.44;88.05
68197;BME280;55019;49.382;11.358;2023-03-14T08:48:37;94761.78;;;9.84;86.55
68197;BME280;55019;49.382;11.358;2023-03-14T08:51:07;94750.88;;;9.82;85.26
68197;BME280;55019;49.382;11.358;2023-03-14T08:53:34;94753.03;;;9.85;84.46
68197;BME280;55019;49.382;11.358;2023-03-14T08:56:00;94741.91;;;9.91;83.80
68197;BME280;55019;49.382;11.358;2023-03-14T08:58:25;94751.13;;;10.37;82.36
68197;BME280;55019;49.382;11.358;2023-03-14T09:00:51;94745.41;;;10.29;80.14
68197;BME280;55019;49.382;11.358;2023-03-14T09:03:17;94737.66;;;10.29;79.69
68197;BME280;55019;49.382;11.358;2023-03-14T09:05:42;94741.97;;;10.48;78.43
68197;BME280;55019;49.382;11.358;2023-03-14T09:08:08;94739.31;;;10.10;79.08
68197;BME280;55019;49.382;11.358;2023-03-14T09:10:34;94742.91;;;9.90;80.96
68197;BME280;55019;49.382;11.358;2023-03-14T09:12:59;94744.94;;;9.75;81.00
68197;BME280;55019;49.382;11.358;2023-03-14T09:15:25;94739.16;;;9.86;78.89
68197;BME280;55019;49.382;11.358;2023-03-14T09:17:51;94739.78;;;9.75;78.32
68197;BME280;55019;49.382;11.358;2023-03-14T09:20:17;94752.09;;;9.80;79.20
68197;BME280;55019;49.382;11.358;2023-03-14T09:22:43;94723.44;;;9.94;78.70
68197;BME280;55019;49.382;11.358;2023-03-14T09:25:09;94746.88;;;10.12;81.16
68197;BME280;55019;49.382;11.358;2023-03-14T09:27:35;94745.47;;;10.16;78.12
68197;BME280;55019;49.382;11.358;2023-03-14T09:30:03;94748.63;;;10.11;78.30
68197;BME280;55019;49.382;11.358;2023-03-14T09:32:29;94740.47;;;10.27;80.24
68197;BME280;55019;49.382;11.358;2023-03-14T09:34:57;94738.00;;;10.39;77.88
68197;BME280;55019;49.382;11.358;2023-03-14T09:37:23;94738.63;;;10.72;75.36
68197;BME280;55019;49.382;11.358;2023-03-14T09:39:48;94730.06;;;10.47;75.09
68197;BME280;55019;49.382;11.358;2023-03-14T09:42:17;94740.47;;;10.27;74.01
68197;BME280;55019;49.382;11.358;2023-03-14T09:44:57;94738.97;;;10.82;74.08
68197;BME280;55019;49.382;11.358;2023-03-14T09:47:26;94743.66;;;11.22;71.70
68197;BME280;55019;49.382;11.358;2023-03-14T09:49:52;94725.50;;;11.29;73.79
68197;BME280;55019;49.382;11.358;2023-03-14T09:52:22;94711.16;;;11.33;70.73
68197;BME280;55019;49.382;11.358;2023-03-14T09:54:52;94715.44;;;11.87;69.92
68197;BME280;55019;49.382;11.358;2023-03-14T09:57:21;94724.78;;;11.88;66.70
68197;BME280;55019;49.382;11.358;2023-03-14T09:59:48;94729.44;;;12.52;66.55
68197;BME280;55019;49.382;11.358;2023-03-14T10:02:21;94726.28;;;12.14;65.81
68197;BME280;55019;49.382;11.358;2023-03-14T10:04:49;94724.91;;;11.57;67.43
68197;BME280;55019;49.382;11.358;2023-03-14T10:07:18;94715.47;;;11.39;68.78
68197;BME280;55019;49.382;11.358;2023-03-14T10:09:48;94711.84;;;11.22;68.37
68197;BME280;55019;49.382;11.358;2023-03-14T10:12:16;94717.63;;;10.93;70.27
68197;BME280;55019;49.382;11.358;2023-03-14T10:14:50;94719.72;;;10.78;70.58
68197;BME280;55019;49.382;11.358;2023-03-14T10:17:18;94711.81;;;10.73;70.81
68197;BME280;55019;49.382;11.358;2023-03-14T10:19:59;94714.19;;;10.37;70.82
68197;BME280;55019;49.382;11.358;2023-03-14T10:22:29;94697.94;;;10.30;72.59
68197;BME280;55019;49.382;11.358;2023-03-14T10:25:01;94706.16;;;10.14;72.17
68197;BME280;55019;49.382;11.358;2023-03-14T10:27:32;94713.50;;;10.17;73.40
68197;BME280;55019;49.382;11.358;2023-03-14T10:30:01;94719.13;;;10.01;74.26
68197;BME280;55019;49.382;11.358;2023-03-14T10:32:32;94709.75;;;10.06;75.31
68197;BME280;55019;49.382;11.358;2023-03-14T10:35:19;94698.41;;;10.14;73.72
68197;BME280;55019;49.382;11.358;2023-03-14T10:37:50;94712.69;;;10.16;74.84
68197;BME280;55019;49.382;11.358;2023-03-14T10:40:18;94699.94;;;10.28;74.69
68197;BME280;55019;49.382;11.358;2023-03-14T10:42:44;94703.03;;;10.43;72.68
68197;BME280;55019;49.382;11.358;2023-03-14T10:48:05;94699.75;;;10.91;71.72
68197;BME280;55019;49.382;11.358;2023-03-14T10:50:32;94714.22;;;10.99;71.62
68197;BME280;55019;49.382;11.358;2023-03-14T10:53:02;94702.03;;;10.81;70.16
68197;BME280;55019;49.382;11.358;2023-03-14T10:55:43;94710.28;;;10.90;71.22
68197;BME280;55019;49.382;11.358;2023-03-14T10:58:26;94702.53;;;10.90;71.24
68197;BME280;55019;49.382;11.358;2023-03-14T11:04:05;94706.69;;;10.97;70.08
68197;BME280;55019;49.382;11.358;2023-03-14T11:06:44;94710.84;;;10.98;71.18
68197;BME280;55019;49.382;11.358;2023-03-14T11:12:55;94714.25;;;10.92;71.39
68197;BME280;55019;49.382;11.358;2023-03-14T11:15:02;94717.28;;;10.89;71.24
68197;BME280;55019;49.382;11.358;2023-03-14T11:17:37;94701.78;;;10.89;72.90
68197;BME280;55019;49.382;11.358;2023-03-14T11:20:29;94715.47;;;10.90;72.65
68197;BME280;55019;49.382;11.358;2023-03-14T11:23:04;94712.56;;;10.80;71.72
68197;BME280;55019;49.382;11.358;2023-03-14T11:25:39;94709.56;;;10.83;71.46
68197;BME280;55019;49.382;11.358;2023-03-14T11:28:37;94696.84;;;10.81;71.51
68197;BME280;55019;49.382;11.358;2023-03-14T11:31:24;94693.31;;;10.76;69.57
68197;BME280;55019;49.382;11.358;2023-03-14T11:36:51;94692.94;;;10.72;70.16
68197;BME280;55019;49.382;11.358;2023-03-14T11:39:19;94688.41;;;10.68;68.90
68197;BME280;55019;49.382;11.358;2023-03-14T11:41:49;94691.41;;;10.65;70.72
68197;BME280;55019;49.382;11.358;2023-03-14T11:44:23;94706.09;;;10.33;74.96
68197;BME280;55019;49.382;11.358;2023-03-14T11:47:09;94705.81;;;9.91;80.83
68197;BME280;55019;49.382;11.358;2023-03-14T11:49:56;94709.69;;;9.56;86.70
68197;BME280;55019;49.382;11.358;2023-03-14T11:52:32;94704.94;;;9.27;87.18
68197;BME280;55019;49.382;11.358;2023-03-14T11:55:09;94710.72;;;9.03;93.42
68197;BME280;55019;49.382;11.358;2023-03-14T11:57:36;94696.25;;;9.09;95.63
68197;BME280;55019;49.382;11.358;2023-03-14T12:13:13;94675.84;;;12.34;77.11
68197;BME280;55019;49.382;11.358;2023-03-14T12:15:55;94680.44;;;12.03;80.09
68197;BME280;55019;49.382;11.358;2023-03-14T12:18:34;94676.47;;;11.82;79.93
68197;BME280;55019;49.382;11.358;2023-03-14T12:21:05;94671.31;;;11.40;81.67
68197;BME280;55019;49.382;11.358;2023-03-14T12:23:48;94670.34;;;11.59;82.90
68197;BME280;55019;49.382;11.358;2023-03-14T12:37:10;94658.69;;;11.32;76.20
68197;BME280;55019;49.382;11.358;2023-03-14T12:46:58;94655.25;;;10.65;80.79
68197;BME280;55019;49.382;11.358;2023-03-14T12:49:31;94656.03;;;10.65;78.70
68197;BME280;55019;49.382;11.358;2023-03-14T12:52:01;94647.41;;;10.78;79.78
68197;BME280;55019;49.382;11.358;2023-03-14T12:54:39;94652.44;;;10.91;76.32
68197;BME280;55019;49.382;11.358;2023-03-14T12:57:40;94647.13;;;10.86;76.28
68197;BME280;55019;49.382;11.358;2023-03-14T13:00:18;94652.56;;;10.78;77.44
68197;BME280;55019;49.382;11.358;2023-03-14T13:02:46;94647.97;;;10.80;74.70
68197;BME280;55019;49.382;11.358;2023-03-14T13:05:21;94641.06;;;10.74;74.86
68197;BME280;55019;49.382;11.358;2023-03-14T13:10:48;94636.91;;;10.97;70.99
68197;BME280;55019;49.382;11.358;2023-03-14T13:13:22;94637.09;;;10.96;70.61
68197;BME280;55019;49.382;11.358;2023-03-14T13:15:53;94640.69;;;10.95;70.23
68197;BME280;55019;49.382;11.358;2023-03-14T13:19:01;94635.94;;;10.92;71.04
68197;BME280;55019;49.382;11.358;2023-03-14T13:21:34;94649.13;;;10.84;70.95
68197;BME280;55019;49.382;11.358;2023-03-14T13:24:03;94647.66;;;10.70;75.28
68197;BME280;55019;49.382;11.358;2023-03-14T13:26:35;94663.81;;;10.28;78.75
68197;BME280;55019;49.382;11.358;2023-03-14T13:29:09;94681.44;;;9.81;84.74
68197;BME280;55019;49.382;11.358;2023-03-14T13:31:35;94713.28;;;9.29;87.78
68197;BME280;55019;49.382;11.358;2023-03-14T13:34:06;94713.28;;;8.90;91.88
68197;BME280;55019;49.382;11.358;2023-03-14T13:36:35;94717.19;;;8.67;95.42
68197;BME280;55019;49.382;11.358;2023-03-14T13:39:01;94719.19;;;8.58;97.30
68197;BME280;55019;49.382;11.358;2023-03-14T13:41:30;94719.19;;;8.65;99.76
68197;BME280;55019;49.382;11.358;2023-03-14T13:44:07;94723.94;;;8.61;99.12
68197;BME280;55019;49.382;11.358;2023-03-14T13:46:35;94729.06;;;8.55;97.43
68197;BME280;55019;49.382;11.358;2023-03-14T13:49:05;94736.78;;;8.55;97.09
68197;BME280;55019;49.382;11.358;2023-03-14T13:51:32;94748.69;;;8.50;97.68
68197;BME280;55019;49.382;11.358;2023-03-14T13:54:01;94759.50;;;8.39;98.14
68197;BME280;55019;49.382;11.358;2023-03-14T13:56:31;94749.22;;;8.32;99.10
68197;BME280;55019;49.382;11.358;2023-03-14T13:58:57;94755.31;;;8.18;98.11
68197;BME280;55019;49.382;11.358;2023-03-14T14:01:26;94752.28;;;8.15;98.60
68197;BME280;55019;49.382;11.358;2023-03-14T14:03:55;94742.31;;;7.99;99.95
68197;BME280;55019;49.382;11.358;2023-03-14T14:06:33;94761.34;;;8.11;100.00